createdAt,value
2018-08-14T00:00:12.482Z,100693.82
2018-08-14T00:02:41.911Z,100692.45
2018-08-14T00:05:11.337Z,100693.11
2018-08-14T00:07:40.699Z,100700.19
2018-08-14T00:10:11.205Z,100692.14
2018-08-14T00:12:40.730Z,100685.09
2018-08-14T00:15:12.859Z,100689.86
2018-08-14T00:17:42.750Z,100691.58
2018-08-14T00:20:13.000Z,100687.92
2018-08-14T00:22:42.167Z,100686.98
2018-08-14T00:25:11.571Z,100690.45
2018-08-14T00:27:41.338Z,100685.97
2018-08-14T00:30:13.195Z,100692.14
2018-08-14T00:32:42.890Z,100684.73
2018-08-14T00:35:12.197Z,100684.73
2018-08-14T00:37:41.709Z,100687.11
2018-08-14T00:40:13.928Z,100679.22
2018-08-14T00:42:43.336Z,100684.45
2018-08-14T00:45:16.116Z,100680.45
2018-08-14T00:47:46.121Z,100687.11
2018-08-14T00:50:16.012Z,100682.70
2018-08-14T00:52:45.814Z,100681.63
2018-08-14T00:55:16.071Z,100679.80
2018-08-14T00:57:45.946Z,100678.99
2018-08-14T01:00:19.590Z,100677.44
2018-08-14T01:02:49.874Z,100674.25
2018-08-14T01:05:19.770Z,100672.05
2018-08-14T01:07:49.761Z,100639.84
2018-08-14T01:10:19.055Z,100667.96
2018-08-14T01:12:50.695Z,100674.09
2018-08-14T01:15:21.566Z,100663.35
2018-08-14T01:17:53.400Z,100664.06
2018-08-14T01:20:23.997Z,100666.63
2018-08-14T01:22:53.240Z,100659.52
2018-08-14T01:25:22.540Z,100656.80
2018-08-14T01:27:52.744Z,100663.73
2018-08-14T01:30:27.109Z,100661.08
2018-08-14T01:32:56.823Z,100661.89
2018-08-14T01:35:26.200Z,100660.27
2018-08-14T01:37:55.474Z,100659.36
2018-08-14T01:40:24.965Z,100659.84
2018-08-14T01:42:54.395Z,100665.69
2018-08-14T01:45:23.874Z,100662.22
2018-08-14T01:47:53.778Z,100663.64
2018-08-14T01:50:26.742Z,100663.64
2018-08-14T01:52:56.408Z,100665.34
2018-08-14T01:55:26.254Z,100665.95
2018-08-14T01:57:56.342Z,100659.27
2018-08-14T02:00:26.557Z,100666.30
2018-08-14T02:02:55.854Z,100665.92
2018-08-14T02:05:25.252Z,100665.82
2018-08-14T02:07:54.553Z,100666.30
2018-08-14T02:10:24.610Z,100667.70
2018-08-14T02:12:54.081Z,100664.16
2018-08-14T02:15:23.625Z,100667.54
2018-08-14T02:17:53.075Z,100660.37
2018-08-14T02:20:24.294Z,100657.70
2018-08-14T02:22:55.830Z,100663.03
2018-08-14T02:25:25.400Z,100655.28
2018-08-14T02:27:54.757Z,100662.31
2018-08-14T02:30:24.285Z,100660.59
2018-08-14T02:32:53.736Z,100656.55
2018-08-14T02:35:23.216Z,100649.44
2018-08-14T02:37:52.861Z,100653.20
2018-08-14T02:40:23.140Z,100647.77
2018-08-14T02:42:52.988Z,100640.84
2018-08-14T02:45:22.558Z,100646.36
2018-08-14T02:47:51.969Z,100642.88
2018-08-14T02:50:22.058Z,100643.69
2018-08-14T02:52:51.859Z,100651.67
2018-08-14T02:55:22.685Z,100644.80
2018-08-14T02:57:52.305Z,100641.78
2018-08-14T03:00:26.514Z,100640.32
2018-08-14T03:02:56.221Z,100636.33
2018-08-14T03:05:25.587Z,100635.06
2018-08-14T03:07:55.022Z,100641.36
2018-08-14T03:10:24.615Z,100643.30
2018-08-14T03:12:53.970Z,100642.89
2018-08-14T03:15:23.499Z,100643.21
2018-08-14T03:17:54.204Z,100646.26
2018-08-14T03:20:23.565Z,100646.78
2018-08-14T03:22:53.297Z,100647.72
2018-08-14T03:25:22.737Z,100638.41
2018-08-14T03:27:52.032Z,100638.80
2018-08-14T03:30:21.500Z,100642.23
2018-08-14T03:32:50.888Z,100637.17
2018-08-14T03:35:20.161Z,100641.20
2018-08-14T03:37:49.350Z,100642.08
2018-08-14T03:40:19.600Z,100634.09
2018-08-14T03:42:49.821Z,100640.32
2018-08-14T03:45:19.413Z,100636.05
2018-08-14T03:47:49.174Z,100632.34
2018-08-14T03:50:18.544Z,100634.09
2018-08-14T03:52:48.184Z,100632.31
2018-08-14T03:55:19.915Z,100635.00
2018-08-14T03:57:49.713Z,100640.03
2018-08-14T04:00:19.820Z,100636.05
2018-08-14T04:02:49.015Z,100632.47
2018-08-14T04:05:18.877Z,100634.71
2018-08-14T04:07:48.339Z,100634.61
2018-08-14T04:10:18.353Z,100637.66
2018-08-14T04:12:48.303Z,100642.95
2018-08-14T04:15:17.509Z,100634.61
2018-08-14T04:17:46.832Z,100635.88
2018-08-14T04:20:16.369Z,100634.16
2018-08-14T04:22:45.861Z,100641.03
2018-08-14T04:25:15.481Z,100633.89
2018-08-14T04:27:44.974Z,100642.69
2018-08-14T04:30:14.988Z,100644.73
2018-08-14T04:32:45.518Z,100645.92
2018-08-14T04:35:15.421Z,100639.79
2018-08-14T04:37:46.414Z,100637.53
2018-08-14T04:40:15.737Z,100637.92
2018-08-14T04:42:45.025Z,100637.05
2018-08-14T04:45:14.391Z,100636.13
2018-08-14T04:47:43.892Z,100640.06
2018-08-14T04:50:14.197Z,100640.94
2018-08-14T04:52:43.576Z,100638.17
2018-08-14T04:55:13.095Z,100649.56
2018-08-14T04:57:42.664Z,100642.55
2018-08-14T05:00:13.915Z,100640.13
2018-08-14T05:02:43.282Z,100640.02
2018-08-14T05:05:13.320Z,100632.14
2018-08-14T05:07:42.294Z,100530.50
2018-08-14T05:10:14.048Z,100628.44
2018-08-14T05:12:43.356Z,100629.38
2018-08-14T05:15:12.730Z,100145.98
2018-08-14T05:17:41.936Z,100625.95
2018-08-14T05:20:12.767Z,100628.05
2018-08-14T05:22:42.364Z,100625.58
2018-08-14T05:25:11.720Z,100622.91
2018-08-14T05:27:40.992Z,100625.06
2018-08-14T05:30:12.839Z,100620.17
2018-08-14T05:32:42.593Z,100619.27
2018-08-14T05:35:11.652Z,100620.98
2018-08-14T05:37:41.063Z,100618.50
2018-08-14T05:40:10.664Z,100624.85
2018-08-14T05:42:40.093Z,100623.52
2018-08-14T05:45:11.565Z,100627.72
2018-08-14T05:47:40.734Z,100622.11
2018-08-14T05:50:11.600Z,100622.91
2018-08-14T05:52:41.048Z,100622.91
2018-08-14T05:55:10.443Z,100620.54
2018-08-14T05:57:39.558Z,100625.34
2018-08-14T06:00:11.243Z,100596.13
2018-08-14T06:02:41.200Z,100624.23
2018-08-14T06:05:10.426Z,100621.60
2018-08-14T06:07:39.562Z,100618.59
2018-08-14T06:10:09.731Z,100620.63
2018-08-14T06:12:39.143Z,100626.27
2018-08-14T06:15:13.207Z,100622.27
2018-08-14T06:17:42.215Z,100623.17
2018-08-14T06:20:13.135Z,100627.09
2018-08-14T06:22:42.951Z,100629.67
2018-08-14T06:25:12.711Z,100621.27
2018-08-14T06:27:42.255Z,100627.73
2018-08-14T06:30:14.363Z,100631.59
2018-08-14T06:32:43.862Z,100628.13
2018-08-14T06:35:12.980Z,100628.06
2018-08-14T06:37:42.134Z,100623.45
2018-08-14T06:40:13.403Z,100624.78
2018-08-14T06:42:43.320Z,100627.77
2018-08-14T06:45:14.376Z,100517.23
2018-08-14T06:47:43.644Z,100628.58
2018-08-14T06:50:15.819Z,100625.59
2018-08-14T06:52:45.550Z,100622.09
2018-08-14T06:55:15.019Z,100619.89
2018-08-14T06:57:45.175Z,100625.11
2018-08-14T07:00:16.014Z,100621.97
2018-08-14T07:02:46.022Z,100625.92
2018-08-14T07:05:14.957Z,100628.97
2018-08-14T07:07:44.113Z,100631.77
2018-08-14T07:10:13.305Z,100636.23
2018-08-14T07:12:43.453Z,100626.66
2018-08-14T07:15:16.347Z,100629.58
2018-08-14T07:17:45.585Z,100630.52
2018-08-14T07:20:14.752Z,100629.58
2018-08-14T07:22:44.522Z,100633.28
2018-08-14T07:25:15.065Z,100634.09
2018-08-14T07:27:44.222Z,100634.35
2018-08-14T07:30:19.449Z,100630.30
2018-08-14T07:32:49.453Z,100626.31
2018-08-14T07:35:18.610Z,100623.97
2018-08-14T07:37:48.572Z,100625.86
2018-08-14T07:40:17.922Z,100629.45
2018-08-14T07:42:47.542Z,100627.28
2018-08-14T07:45:17.948Z,100623.03
2018-08-14T07:47:47.112Z,100627.02
2018-08-14T07:50:16.918Z,100621.16
2018-08-14T07:52:50.873Z,100626.44
2018-08-14T07:58:21.844Z,100632.47
2018-08-14T08:03:43.418Z,100621.22
2018-08-14T08:06:20.515Z,100629.81
2018-08-14T08:08:50.287Z,100631.23
2018-08-14T08:11:19.715Z,100626.72
2018-08-14T08:13:48.871Z,100628.57
2018-08-14T08:16:18.305Z,100629.30
2018-08-14T08:18:47.702Z,100633.80
2018-08-14T08:21:16.969Z,100630.72
2018-08-14T08:23:46.510Z,100628.57
2018-08-14T08:26:15.456Z,100623.44
2018-08-14T08:28:44.774Z,100621.97
2018-08-14T08:31:13.929Z,100623.63
2018-08-14T08:33:43.018Z,100618.55
2018-08-14T08:36:12.113Z,100619.39
2018-08-14T08:38:41.149Z,100618.84
2018-08-14T08:41:10.324Z,100615.90
2018-08-14T08:43:39.380Z,100619.02
2018-08-14T08:46:08.764Z,100613.94
2018-08-14T08:48:37.841Z,100616.84
2018-08-14T08:51:07.071Z,100611.16
2018-08-14T08:53:36.307Z,100609.89
2018-08-14T08:56:05.803Z,100611.16
2018-08-14T08:58:34.830Z,100609.33
2018-08-14T09:01:04.705Z,100610.00
2018-08-14T09:03:34.190Z,100611.41
2018-08-14T09:06:03.377Z,100608.71
2018-08-14T09:08:32.951Z,100524.48
2018-08-14T09:11:02.169Z,100613.74
2018-08-14T09:13:31.753Z,100616.16
2018-08-14T09:16:01.053Z,100519.16
2018-08-14T09:18:30.157Z,100623.30
2018-08-14T09:20:59.403Z,100601.70
2018-08-14T09:23:29.094Z,100622.96
2018-08-14T09:25:59.986Z,100630.42
2018-08-14T09:28:29.023Z,100620.79
2018-08-14T09:30:58.711Z,100621.90
2018-08-14T09:33:27.997Z,100623.34
2018-08-14T09:35:57.553Z,100623.55
2018-08-14T09:38:27.368Z,100618.30
2018-08-14T09:40:56.961Z,100621.34
2018-08-14T09:43:26.327Z,100608.81
2018-08-14T09:45:55.628Z,100611.59
2018-08-14T09:48:24.820Z,100607.89
2018-08-14T09:50:54.233Z,100612.34
2018-08-14T09:53:23.244Z,100605.55
2018-08-14T09:55:52.513Z,100608.67
2018-08-14T09:58:21.723Z,100602.55
2018-08-14T10:00:56.057Z,100602.27
2018-08-14T10:03:30.247Z,100595.34
2018-08-14T10:06:04.255Z,100594.22
2018-08-14T10:08:33.713Z,100591.45
2018-08-14T10:11:03.394Z,100596.03
2018-08-14T10:13:32.578Z,100587.77
2018-08-14T10:16:01.729Z,100589.02
2018-08-14T10:18:31.108Z,100592.23
2018-08-14T10:21:00.489Z,100583.28
2018-08-14T10:23:31.236Z,100576.61
2018-08-14T10:26:00.303Z,100572.61
2018-08-14T10:28:29.923Z,100583.74
2018-08-14T10:30:59.727Z,100580.79
2018-08-14T10:33:28.896Z,100576.53
2018-08-14T10:35:58.037Z,100581.20
2018-08-14T10:38:27.658Z,100579.45
2018-08-14T10:40:57.197Z,100583.16
2018-08-14T10:43:26.537Z,100582.23
2018-08-14T10:45:56.162Z,100583.58
2018-08-14T10:48:25.152Z,100581.28
2018-08-14T10:50:54.313Z,100580.48
2018-08-14T10:53:24.102Z,100578.10
2018-08-14T10:55:54.121Z,100577.56
2018-08-14T10:58:23.380Z,100573.77
2018-08-14T11:00:52.906Z,100576.61
2018-08-14T11:03:21.912Z,100575.61
2018-08-14T11:05:51.109Z,100573.07
2018-08-14T11:08:20.996Z,100574.75
2018-08-14T11:10:55.308Z,100577.08
2018-08-14T11:13:24.508Z,100578.62
2018-08-14T11:15:53.740Z,100577.83
2018-08-14T11:18:23.606Z,100577.03
2018-08-14T11:20:52.835Z,100575.02
2018-08-14T11:23:22.598Z,100594.34
2018-08-14T11:25:51.711Z,100580.09
2018-08-14T11:28:21.249Z,100575.36
2018-08-14T11:30:50.398Z,100581.69
2018-08-14T11:33:21.020Z,100584.75
2018-08-14T11:36:07.624Z,100579.92
2018-08-14T11:38:36.896Z,100585.67
2018-08-14T11:41:06.536Z,100583.67
2018-08-14T11:43:35.696Z,100588.09
2018-08-14T11:46:04.792Z,100593.09
2018-08-14T11:48:34.094Z,100598.33
2018-08-14T11:51:03.222Z,100594.41
2018-08-14T11:53:32.197Z,100599.23
2018-08-14T11:56:01.600Z,100592.91
2018-08-14T11:58:30.693Z,100591.39
2018-08-14T12:00:59.885Z,100599.77
2018-08-14T12:03:29.274Z,100596.66
2018-08-14T12:05:58.427Z,100601.42
2018-08-14T12:08:27.548Z,100598.41
2018-08-14T12:10:56.703Z,100600.66
2018-08-14T12:13:25.744Z,100605.58
2018-08-14T12:15:54.734Z,100612.20
2018-08-14T12:18:24.077Z,100607.86
2018-08-14T12:20:53.127Z,100608.92
2018-08-14T12:23:22.208Z,100612.45
2018-08-14T12:25:51.419Z,100619.66
2018-08-14T12:28:20.875Z,100613.45
2018-08-14T12:30:50.076Z,100618.32
2018-08-14T12:33:19.125Z,100620.68
2018-08-14T12:35:48.713Z,100618.81
2018-08-14T12:38:18.184Z,100624.22
2018-08-14T12:40:47.258Z,100617.09
2018-08-14T12:43:19.159Z,100623.34
2018-08-14T12:45:48.825Z,100629.63
2018-08-14T12:48:18.203Z,100627.69
2018-08-14T12:50:47.144Z,100622.81
2018-08-14T12:53:16.696Z,100627.34
2018-08-14T12:55:46.006Z,100627.76
2018-08-14T12:58:15.427Z,100626.95
2018-08-14T13:00:44.704Z,100627.64
2018-08-14T13:03:14.873Z,100630.42
2018-08-14T13:05:44.081Z,100634.95
2018-08-14T13:08:13.371Z,100635.22
2018-08-14T13:10:42.394Z,100614.91
2018-08-14T13:13:11.557Z,100638.95
2018-08-14T13:15:40.968Z,100636.92
2018-08-14T13:18:12.788Z,100639.59
2018-08-14T13:20:42.075Z,100640.91
2018-08-14T13:23:14.193Z,100636.92
2018-08-14T13:25:43.692Z,100636.78
2018-08-14T13:28:13.321Z,100634.36
2018-08-14T13:30:42.817Z,100642.05
2018-08-14T13:33:12.091Z,100639.11
2018-08-14T13:35:41.183Z,100646.79
2018-08-14T13:38:10.601Z,100646.19
2018-08-14T13:40:39.952Z,100649.39
2018-08-14T13:43:09.360Z,100640.91
2018-08-14T13:45:38.599Z,100652.72
2018-08-14T13:48:08.065Z,100650.23
2018-08-14T13:50:37.111Z,100649.80
2018-08-14T13:53:06.910Z,100650.05
2018-08-14T13:55:36.273Z,100650.16
2018-08-14T13:58:05.495Z,100647.46
2018-08-14T14:00:34.568Z,100643.86
2018-08-14T14:03:04.415Z,100640.63
2018-08-14T14:05:33.505Z,100639.06
2018-08-14T14:08:02.658Z,100637.05
2018-08-14T14:10:32.292Z,100635.48
2018-08-14T14:13:01.571Z,100637.55
2018-08-14T14:15:30.589Z,100637.97
2018-08-14T14:17:59.808Z,100637.45
2018-08-14T14:20:30.551Z,100640.81
2018-08-14T14:22:59.848Z,100639.54
2018-08-14T14:25:29.449Z,100634.49
2018-08-14T14:27:58.673Z,100631.72
2018-08-14T14:30:27.760Z,100636.94
2018-08-14T14:35:50.058Z,100648.20
2018-08-14T14:38:19.508Z,100646.84
2018-08-14T14:40:48.649Z,100651.48
2018-08-14T14:43:18.102Z,100654.31
2018-08-14T14:45:47.258Z,100653.67
2018-08-14T14:48:16.286Z,100654.84
2018-08-14T14:50:45.625Z,100659.34
2018-08-14T14:53:14.742Z,100647.69
2018-08-14T14:55:43.944Z,100646.36
2018-08-14T14:58:13.752Z,100650.93
2018-08-14T15:00:42.889Z,100654.70
2018-08-14T15:03:12.401Z,100651.23
2018-08-14T15:05:41.685Z,100647.05
2018-08-14T15:08:10.738Z,100653.67
2018-08-14T15:10:39.787Z,100645.22
2018-08-14T15:13:08.808Z,100648.42
2018-08-14T15:15:37.853Z,100641.11
2018-08-14T15:18:06.916Z,100630.40
2018-08-14T15:20:36.629Z,100629.14
2018-08-14T15:23:06.929Z,100636.09
2018-08-14T15:25:36.152Z,100628.22
2018-08-14T15:29:10.241Z,100632.59
2018-08-14T15:31:41.847Z,100627.66
2018-08-14T15:34:13.434Z,100629.41
2018-08-14T15:36:43.351Z,100632.87
2018-08-14T15:39:14.035Z,100637.25
2018-08-14T15:41:43.700Z,100638.32
2018-08-14T15:44:13.396Z,100644.57
2018-08-14T15:46:42.652Z,100638.59
2018-08-14T15:49:12.511Z,100639.23
2018-08-14T15:51:42.302Z,100642.89
2018-08-14T15:54:12.860Z,100643.53
2018-08-14T15:56:42.102Z,100650.20
2018-08-14T15:59:11.712Z,100653.89
2018-08-14T16:01:41.047Z,100651.95
2018-08-14T16:04:15.034Z,100650.50
2018-08-14T16:06:44.561Z,100654.50
2018-08-14T16:09:17.358Z,100657.05
2018-08-14T16:11:47.433Z,100655.18
2018-08-14T16:14:17.043Z,100667.72
2018-08-14T16:16:50.728Z,100668.14
2018-08-14T16:19:21.614Z,100668.14
2018-08-14T16:21:51.286Z,100670.11
2018-08-14T16:24:21.415Z,100670.70
2018-08-14T16:26:50.709Z,100674.71
2018-08-14T16:29:20.106Z,100667.98
2018-08-14T16:31:49.289Z,100664.86
2018-08-14T16:34:18.400Z,100669.77
2018-08-14T16:36:48.032Z,100665.05
2018-08-14T16:39:17.245Z,100661.31
2018-08-14T16:41:46.366Z,100668.59
2018-08-14T16:44:15.641Z,100676.91
2018-08-14T16:46:44.803Z,100678.63
2018-08-14T16:49:13.948Z,100678.63
2018-08-14T16:51:43.226Z,100682.23
2018-08-14T16:54:12.311Z,100690.12
2018-08-14T16:56:41.375Z,100693.83
2018-08-14T16:59:10.673Z,100694.63
2018-08-14T17:01:39.957Z,100692.61
2018-08-14T17:04:09.071Z,100687.42
2018-08-14T17:06:38.151Z,100691.01
2018-08-14T17:09:08.980Z,100684.56
2018-08-14T17:11:38.761Z,100690.05
2018-08-14T17:14:08.511Z,100681.10
2018-08-14T17:16:37.585Z,100690.73
2018-08-14T17:19:07.435Z,100688.98
2018-08-14T17:21:35.311Z,100689.09
2018-08-14T17:24:04.419Z,100693.09
2018-08-14T17:26:33.528Z,100701.75
2018-08-14T17:29:03.068Z,100701.55
2018-08-14T17:31:32.252Z,100703.12
2018-08-14T17:34:01.265Z,100700.07
2018-08-14T17:36:30.600Z,100701.70
2018-08-14T17:38:59.695Z,100701.47
2018-08-14T17:41:28.978Z,100705.13
2018-08-14T17:43:58.467Z,100710.39
2018-08-14T17:46:27.570Z,100703.17
2018-08-14T17:48:56.753Z,100709.53
2018-08-14T17:51:26.049Z,100684.96
2018-08-14T17:53:55.162Z,100703.91
2018-08-14T17:56:24.412Z,100710.22
2018-08-14T17:58:53.737Z,100722.33
2018-08-14T18:01:22.936Z,100711.28
2018-08-14T18:03:52.402Z,100712.45
2018-08-14T18:06:23.178Z,100711.58
2018-08-14T18:08:52.399Z,100711.22
2018-08-14T18:11:22.677Z,100716.56
2018-08-14T18:13:52.248Z,100721.47
2018-08-14T18:16:22.555Z,100718.11
2018-08-14T18:18:51.903Z,100714.53
2018-08-14T18:24:35.422Z,100723.58
2018-08-14T18:27:05.157Z,100727.95
2018-08-14T18:29:34.744Z,100728.31
2018-08-14T18:32:04.563Z,100725.19
2018-08-14T18:34:33.732Z,100734.09
2018-08-14T18:37:03.730Z,100749.28
2018-08-14T18:39:33.287Z,100747.03
2018-08-14T18:42:04.038Z,100757.23
2018-08-14T18:44:33.622Z,100764.36
2018-08-14T18:47:03.818Z,100767.72
2018-08-14T18:49:33.428Z,100766.77
2018-08-14T18:52:03.496Z,100766.77
2018-08-14T18:54:33.422Z,100767.72
2018-08-14T18:57:03.573Z,100772.63
2018-08-14T18:59:33.162Z,100777.68
2018-08-14T19:02:02.646Z,100778.59
2018-08-14T19:04:32.358Z,100787.53
2018-08-14T19:07:02.503Z,100792.44
2018-08-14T19:09:31.935Z,100797.77
2018-08-14T19:12:01.547Z,100798.30
2018-08-14T19:14:31.272Z,100799.30
2018-08-14T19:17:00.488Z,100803.02
2018-08-14T19:19:29.903Z,100797.69
2018-08-14T19:21:59.440Z,100791.55
2018-08-14T19:24:28.753Z,100804.91
2018-08-14T19:26:58.396Z,100806.73
2018-08-14T19:29:28.019Z,100809.39
2018-08-14T19:31:57.228Z,100800.36
2018-08-14T19:34:26.543Z,100797.27
2018-08-14T19:36:56.090Z,100795.31
2018-08-14T19:39:26.020Z,100802.92
2018-08-14T19:41:55.441Z,100796.78
2018-08-14T19:44:26.019Z,100799.55
2018-08-14T19:46:55.331Z,100799.55
2018-08-14T19:49:25.072Z,100803.23
2018-08-14T19:51:55.101Z,100794.32
2018-08-14T19:54:24.488Z,100802.83
2018-08-14T19:56:54.620Z,100796.34
2018-08-14T19:59:24.318Z,100794.56
2018-08-14T20:01:53.810Z,100790.98
2018-08-14T20:04:23.420Z,100801.73
2018-08-14T20:06:52.961Z,100800.58
2018-08-14T20:09:22.796Z,100800.25
2018-08-14T20:11:52.367Z,100802.00
2018-08-14T20:14:22.647Z,100804.25
2018-08-14T20:16:52.559Z,100800.25
2018-08-14T20:19:24.173Z,100798.63
2018-08-14T20:21:53.531Z,100806.52
2018-08-14T20:24:23.486Z,100803.95
2018-08-14T20:26:54.144Z,100809.28
2018-08-14T20:29:23.341Z,100805.58
2018-08-14T20:31:52.562Z,100800.58
2018-08-14T20:34:23.052Z,100645.22
2018-08-14T20:36:52.619Z,100803.76
2018-08-14T20:39:22.438Z,100801.91
2018-08-14T20:41:52.272Z,100804.25
2018-08-14T20:44:23.207Z,100804.38
2018-08-14T20:46:53.207Z,100802.17
2018-08-14T20:49:23.305Z,100806.91
2018-08-14T20:51:53.152Z,100807.33
2018-08-14T20:54:23.963Z,100811.33
2018-08-14T20:56:53.427Z,100811.33
2018-08-14T20:59:24.372Z,100819.67
2018-08-14T21:01:53.618Z,100821.20
2018-08-14T21:04:23.838Z,100724.48
2018-08-14T21:06:53.121Z,100801.38
2018-08-14T21:09:22.513Z,100817.88
2018-08-14T21:11:52.069Z,100818.72
2018-08-14T21:14:21.859Z,100816.97
2018-08-14T21:16:51.403Z,100822.04
2018-08-14T21:19:21.356Z,100817.75
2018-08-14T21:21:51.000Z,100824.09
2018-08-14T21:24:21.237Z,100827.31
2018-08-14T21:26:50.885Z,100828.64
2018-08-14T21:29:20.412Z,100837.44
2018-08-14T21:31:50.262Z,100834.78
2018-08-14T21:34:20.250Z,100840.63
2018-08-14T21:36:50.165Z,100837.86
2018-08-14T21:39:19.662Z,100845.43
2018-08-14T21:41:49.507Z,100845.53
2018-08-14T21:44:19.135Z,100843.81
2018-08-14T21:46:48.634Z,100846.38
2018-08-14T21:49:18.256Z,100845.43
2018-08-14T21:51:47.951Z,100845.53
2018-08-14T21:54:17.218Z,100849.14
2018-08-14T21:56:46.578Z,100843.91
2018-08-14T21:59:15.993Z,100851.98
2018-08-14T22:01:45.645Z,100851.02
2018-08-14T22:04:15.214Z,100846.41
2018-08-14T22:06:44.539Z,100841.89
2018-08-14T22:09:13.793Z,100837.41
2018-08-14T22:11:43.446Z,100847.05
2018-08-14T22:14:12.749Z,100847.94
2018-08-14T22:16:42.361Z,100836.53
2018-08-14T22:19:12.221Z,100842.38
2018-08-14T22:21:41.618Z,100844.69
2018-08-14T22:24:11.015Z,100847.38
2018-08-14T22:26:41.221Z,100841.24
2018-08-14T22:29:10.604Z,100843.81
2018-08-14T22:31:39.847Z,100840.27
2018-08-14T22:34:09.808Z,100854.56
2018-08-14T22:36:39.266Z,100852.87
2018-08-14T22:39:09.850Z,100851.60
2018-08-14T22:41:39.200Z,100852.09
2018-08-14T22:44:08.960Z,100858.75
2018-08-14T22:46:38.112Z,100852.51
2018-08-14T22:49:08.011Z,100852.87
2018-08-14T22:51:37.264Z,100853.84
2018-08-14T22:54:06.517Z,100857.93
2018-08-14T22:56:35.735Z,100855.88
2018-08-14T22:59:04.869Z,100864.81
2018-08-14T23:01:34.107Z,100863.96
2018-08-14T23:04:03.919Z,100863.52
2018-08-14T23:06:33.514Z,100868.47
2018-08-14T23:09:02.767Z,100863.87
2018-08-14T23:11:32.325Z,100868.29
2018-08-14T23:14:01.797Z,100866.53
2018-08-14T23:16:30.974Z,100866.95
2018-08-14T23:19:00.323Z,100867.34
2018-08-14T23:21:29.990Z,100867.34
2018-08-14T23:23:59.706Z,100867.70
2018-08-14T23:26:30.299Z,100858.36
2018-08-14T23:28:59.535Z,100865.41
2018-08-14T23:31:28.695Z,100866.28
2018-08-14T23:33:58.120Z,100869.72
2018-08-14T23:36:27.851Z,100868.78
2018-08-14T23:38:57.022Z,100869.30
2018-08-14T23:41:26.492Z,100866.34
2018-08-14T23:43:55.716Z,100864.04
2018-08-14T23:46:24.968Z,100873.36
2018-08-14T23:48:54.345Z,100874.33
2018-08-14T23:51:24.083Z,100871.77
2018-08-14T23:53:53.296Z,100867.05
2018-08-14T23:56:23.112Z,100874.52
2018-08-14T23:58:52.516Z,100875.71
